KLIC/LIC METAR and TAF weather

Enter ICAO airport designator
Station Type Date Time Source
KLIC METAR 2020/01/17 14:30 UTC NOAA

KLIC 171430Z AUTO 15006KT 1/4SM FZFG VV002 M06/M06 A2976 RMK AO2 I1001 T10561056


Station Type Date Time Source
KLIC Decoded METAR 2020/01/17 14:30 UTC NOAA

LIMON MUNICIPAL AIRPORT, CO, United States (KLIC) 39-16N 103-40W 1630M
Jan 17, 2020 - 09:30 AM EST / 2020.01.17 1430 UTC
Wind: from the SSE (150 degrees) at 7 MPH (6 KT):0
Visibility: 1/4 mile(s):0
Sky conditions: obscured
Weather: freezing fog
Temperature: 21.9 F (-5.6 C)
Windchill: 14 F (-10 C):1
Dew Point: 21.9 F (-5.6 C)
Relative Humidity: 100%
Pressure (altimeter): 29.76 in. Hg (1007 hPa)
ob: KLIC 171430Z AUTO 15006KT 1/4SM FZFG VV002 M06/M06 A2976 RMK AO2 I1001 T10561056
cycle: 14

Station Type Date Time Source
KLIC TAF UTC NOAA

Error!

Example: see airport list